Time;durP1;ratioP1;P1;durP2;ratioP2;P2;SDS_P1;SDS_P2;PMS_P1;PMS_P2;Temp;Humidity;BMP_temperature;BMP_pressure;BME280_temperature;BME280_humidity;BME280_pressure;Samples;Min_cycle;Max_cycle;Signal;HPM_P1;HPM_P2
2022/06/01 00:00:43;;;;;;;;;;;;;;;18.05;61.07;99424.03;4341687;33;34014;-84
2022/06/01 00:03:11;;;;;;;;;;;;;;;18.03;61.10;99420.63;4347199;33;33945;-85
2022/06/01 00:05:40;;;;;;;;;;;;;;;18.09;61.11;99412.44;4349592;32;34582;-85
2022/06/01 00:08:10;;;;;;;;;;;;;;;18.30;60.25;99415.78;4356204;32;34810;-84
2022/06/01 00:10:39;;;;;;;;;;;;;;;18.33;59.96;99420.88;4355994;32;33649;-84
2022/06/01 00:13:10;;;;;;;;;;;;;;;18.38;59.92;99414.56;4356404;32;33973;-84
2022/06/01 00:15:38;;;;;;;;;;;;;;;18.37;59.85;99418.97;4362115;32;33429;-85
2022/06/01 00:18:08;;;;;;;;;;;;;;;18.17;60.54;99417.34;4356464;32;34985;-85
2022/06/01 00:20:40;;;;;;;;;;;;;;;18.16;60.70;99409.53;4350005;32;34095;-85
2022/06/01 00:23:10;;;;;;;;;;;;;;;18.07;60.81;99410.81;4350513;32;33960;-84
2022/06/01 00:25:38;;;;;;;;;;;;;;;17.90;61.57;99412.50;4355853;32;34788;-85
2022/06/01 00:28:07;;;;;;;;;;;;;;;18.06;61.06;99414.37;4361181;32;35709;-84
2022/06/01 00:30:37;;;;;;;;;;;;;;;18.12;60.64;99407.06;4360193;32;35079;-84
2022/06/01 00:33:05;;;;;;;;;;;;;;;18.13;60.84;99406.13;4357599;32;33114;-85
2022/06/01 00:35:33;;;;;;;;;;;;;;;18.15;60.79;99402.59;4347214;32;34538;-85
2022/06/01 00:38:02;;;;;;;;;;;;;;;17.99;61.20;99407.72;4341484;33;33657;-84
2022/06/01 00:40:37;;;;;;;;;;;;;;;17.97;61.11;99404.31;4341370;33;34226;-84
2022/06/01 00:43:17;;;;;;;;;;;;;;;17.70;61.59;99404.66;4345337;33;32734;-85
2022/06/01 00:45:45;;;;;;;;;;;;;;;17.80;61.44;99397.22;4348105;32;34125;-84
2022/06/01 00:48:14;;;;;;;;;;;;;;;17.78;61.60;99394.66;4355759;32;34200;-85
2022/06/01 00:50:42;;;;;;;;;;;;;;;17.69;61.60;99393.31;4356895;32;34908;-85
2022/06/01 00:53:12;;;;;;;;;;;;;;;17.85;61.04;99396.09;4357863;32;33009;-85
2022/06/01 00:55:43;;;;;;;;;;;;;;;17.76;61.17;99386.03;4352917;32;36133;-84
2022/06/01 00:58:14;;;;;;;;;;;;;;;17.77;61.42;99389.50;4347316;33;34765;-85
2022/06/01 01:00:43;;;;;;;;;;;;;;;17.80;61.03;99394.59;4343147;33;34436;-85
2022/06/01 01:03:12;;;;;;;;;;;;;;;17.70;61.12;99391.53;4352320;32;33626;-84
2022/06/01 01:05:41;;;;;;;;;;;;;;;17.69;60.98;99393.31;4358037;32;33870;-85
2022/06/01 01:08:10;;;;;;;;;;;;;;;17.70;60.96;99395.00;4358109;32;35113;-85
2022/06/01 01:10:38;;;;;;;;;;;;;;;17.74;61.00;99397.50;4363172;32;34153;-85
2022/06/01 01:13:09;;;;;;;;;;;;;;;17.73;60.96;99391.41;4357526;32;34175;-86
2022/06/01 01:15:38;;;;;;;;;;;;;;;17.65;61.15;99397.00;4357794;32;33896;-85
2022/06/01 01:18:12;;;;;;;;;;;;;;;17.42;61.87;99405.97;4345689;32;34814;-85
2022/06/01 01:20:44;;;;;;;;;;;;;;;17.54;61.53;99398.44;4355001;32;34159;-85
2022/06/01 01:23:16;;;;;;;;;;;;;;;17.56;61.44;99401.84;4353461;32;32572;-84
2022/06/01 01:25:46;;;;;;;;;;;;;;;17.44;61.91;99403.25;4352789;32;33868;-84
2022/06/01 01:28:15;;;;;;;;;;;;;;;17.63;61.45;99398.00;4357681;32;35038;-85
2022/06/01 01:30:52;;;;;;;;;;;;;;;17.42;62.11;99403.34;4358339;32;34192;-85
2022/06/01 01:33:22;;;;;;;;;;;;;;;17.56;61.71;99399.22;4357965;32;32889;-84
2022/06/01 01:35:51;;;;;;;;;;;;;;;17.63;61.65;99405.87;4357122;32;34753;-85
2022/06/01 01:38:22;;;;;;;;;;;;;;;17.65;61.70;99399.63;4363175;32;35116;-85
2022/06/01 01:41:04;;;;;;;;;;;;;;;17.69;61.72;99397.72;4357309;32;33686;-85
2022/06/01 01:43:32;;;;;;;;;;;;;;;17.59;62.16;99389.44;4357497;32;33263;-85
2022/06/01 01:46:01;;;;;;;;;;;;;;;17.57;62.41;99393.06;4357659;32;34055;-84
2022/06/01 01:48:32;;;;;;;;;;;;;;;17.33;63.33;99388.03;4357229;32;34685;-85
2022/06/01 01:51:02;;;;;;;;;;;;;;;17.26;63.35;99382.19;4358793;32;34945;-84
2022/06/01 01:53:32;;;;;;;;;;;;;;;17.47;62.80;99385.63;4362760;32;33597;-86
2022/06/01 01:56:19;;;;;;;;;;;;;;;17.42;63.08;99384.09;4357532;32;32921;-85
2022/06/01 01:58:56;;;;;;;;;;;;;;;17.60;62.56;99379.78;4352350;32;33736;-84
2022/06/01 02:01:25;;;;;;;;;;;;;;;17.65;62.61;99377.81;4369064;32;33662;-84
2022/06/01 02:03:56;;;;;;;;;;;;;;;17.78;62.29;99376.28;4357144;32;33243;-84
2022/06/01 02:06:24;;;;;;;;;;;;;;;17.69;62.75;99379.38;4357446;32;33846;-85
2022/06/01 02:08:54;;;;;;;;;;;;;;;17.87;62.26;99383.75;4362202;32;33956;-85
2022/06/01 02:14:13;;;;;;;;;;;;;;;17.94;62.74;99375.59;4357381;32;33264;-85
2022/06/01 02:16:43;;;;;;;;;;;;;;;18.02;62.57;99378.69;4368677;32;33695;-85
2022/06/01 02:19:13;;;;;;;;;;;;;;;17.96;63.12;99382.47;4357093;32;33793;-86
2022/06/01 02:21:43;;;;;;;;;;;;;;;18.05;62.76;99375.91;4356488;32;34367;-84
2022/06/01 02:24:12;;;;;;;;;;;;;;;17.91;63.11;99374.81;4348220;32;33373;-85
2022/06/01 02:26:40;;;;;;;;;;;;;;;18.03;62.79;99381.25;4357108;32;34847;-85
2022/06/01 02:29:10;;;;;;;;;;;;;;;18.01;62.73;99375.22;4357221;32;34347;-84
2022/06/01 02:31:40;;;;;;;;;;;;;;;18.03;62.39;99383.03;4357274;32;34823;-85
2022/06/01 02:34:09;;;;;;;;;;;;;;;18.19;62.06;99383.94;4357000;32;33568;-86
2022/06/01 02:36:38;;;;;;;;;;;;;;;18.17;62.51;99379.69;4353172;32;33890;-85
2022/06/01 02:39:07;;;;;;;;;;;;;;;18.17;62.89;99385.81;4342644;33;34929;-86
2022/06/01 02:44:22;;;;;;;;;;;;;;;18.24;63.92;99381.09;4346993;32;34858;-85
2022/06/01 02:46:55;;;;;;;;;;;;;;;18.31;64.47;99383.37;4347799;32;34619;-86
2022/06/01 02:49:24;;;;;;;;;;;;;;;18.33;65.31;99381.50;4342170;33;34171;-85
2022/06/01 02:51:53;;;;;;;;;;;;;;;18.53;64.88;99375.25;4348018;33;35063;-85
2022/06/01 02:54:21;;;;;;;;;;;;;;;18.32;65.74;99377.19;4342205;33;33317;-85
2022/06/01 02:56:50;;;;;;;;;;;;;;;18.16;66.25;99385.88;4342279;33;34655;-85
2022/06/01 02:59:19;;;;;;;;;;;;;;;18.03;65.70;99378.63;4341575;33;33746;-85
2022/06/01 03:01:47;;;;;;;;;;;;;;;18.13;65.63;99384.28;4348027;32;33988;-86
2022/06/01 03:04:17;;;;;;;;;;;;;;;18.23;65.52;99376.78;4359555;32;33086;-86
2022/06/01 03:06:45;;;;;;;;;;;;;;;18.25;65.34;99373.16;4344187;32;32833;-85
2022/06/01 03:09:34;;;;;;;;;;;;;;;18.18;64.74;99374.38;4341149;33;34022;-86
2022/06/01 03:12:04;;;;;;;;;;;;;;;18.06;64.04;99372.38;4342261;33;34104;-86
2022/06/01 03:14:33;;;;;;;;;;;;;;;18.26;63.48;99371.38;4339754;33;31705;-86
2022/06/01 03:17:05;;;;;;;;;;;;;;;18.42;63.32;99368.84;4347370;33;34397;-84
2022/06/01 03:19:34;;;;;;;;;;;;;;;18.47;62.89;99366.84;4353583;32;34153;-85
2022/06/01 03:22:04;;;;;;;;;;;;;;;18.62;62.77;99368.66;4353841;32;33675;-85
2022/06/01 03:24:33;;;;;;;;;;;;;;;18.48;64.04;99368.50;4353113;32;33796;-85
2022/06/01 03:27:02;;;;;;;;;;;;;;;18.62;63.88;99358.16;4357030;32;34821;-84
2022/06/01 03:29:30;;;;;;;;;;;;;;;18.50;64.61;99350.91;4362418;32;34969;-85
2022/06/01 03:31:59;;;;;;;;;;;;;;;18.41;64.84;99360.13;4356652;32;34281;-85
2022/06/01 03:34:30;;;;;;;;;;;;;;;18.68;64.05;99360.47;4355618;32;33395;-85
2022/06/01 03:37:00;;;;;;;;;;;;;;;18.94;64.00;99379.31;4355856;32;34701;-86
2022/06/01 03:39:29;;;;;;;;;;;;;;;19.05;64.30;99395.38;4362372;32;33227;-85
2022/06/01 03:41:59;;;;;;;;;;;;;;;18.99;64.49;99443.00;4356750;32;34599;-85
2022/06/01 03:47:13;;;;;;;;;;;;;;;18.08;66.24;99450.13;4356726;32;33829;-85
2022/06/01 03:49:42;;;;;;;;;;;;;;;18.10;67.48;99444.81;4357162;32;33910;-85
2022/06/01 03:52:12;;;;;;;;;;;;;;;17.81;69.25;99452.28;4356492;32;34521;-85
2022/06/01 03:54:41;;;;;;;;;;;;;;;18.12;69.12;99454.31;4362228;32;32326;-84
2022/06/01 03:57:12;;;;;;;;;;;;;;;18.07;69.92;99451.06;4356503;32;33979;-86
2022/06/01 03:59:41;;;;;;;;;;;;;;;18.23;69.74;99455.56;4355305;32;34403;-85
2022/06/01 04:02:09;;;;;;;;;;;;;;;18.65;68.30;99449.97;4356571;32;33767;-84
2022/06/01 04:04:38;;;;;;;;;;;;;;;18.23;70.88;99442.44;4356363;32;33255;-84
2022/06/01 04:07:08;;;;;;;;;;;;;;;18.44;70.46;99432.66;4359713;32;32493;-84
2022/06/01 04:09:38;;;;;;;;;;;;;;;18.63;69.98;99432.56;4357902;32;34045;-85
2022/06/01 04:12:08;;;;;;;;;;;;;;;18.75;69.93;99435.44;4356250;32;34129;-85
2022/06/01 04:14:36;;;;;;;;;;;;;;;18.98;68.78;99438.69;4356445;32;33338;-85
2022/06/01 04:17:05;;;;;;;;;;;;;;;19.22;67.51;99435.72;4367627;32;33553;-86
2022/06/01 04:19:34;;;;;;;;;;;;;;;19.29;67.22;99439.72;4356350;32;34286;-85
2022/06/01 04:22:02;;;;;;;;;;;;;;;19.41;66.41;99444.31;4349262;32;34324;-85
2022/06/01 04:24:32;;;;;;;;;;;;;;;19.42;66.47;99432.84;4355906;32;33568;-85
2022/06/01 04:27:02;;;;;;;;;;;;;;;19.52;66.45;99438.47;4357154;32;33901;-84
2022/06/01 04:29:31;;;;;;;;;;;;;;;19.64;66.53;99434.31;4358748;32;34284;-85
2022/06/01 04:32:01;;;;;;;;;;;;;;;19.61;66.92;99444.09;4357843;32;34705;-85
2022/06/01 04:34:30;;;;;;;;;;;;;;;19.71;66.61;99446.25;4363677;32;32237;-85
2022/06/01 04:36:58;;;;;;;;;;;;;;;19.66;66.98;99454.34;4357105;32;33996;-85
2022/06/01 04:39:27;;;;;;;;;;;;;;;19.69;67.34;99456.00;4341024;32;34780;-85
2022/06/01 04:41:55;;;;;;;;;;;;;;;19.72;67.91;99461.13;4341726;33;34528;-86
2022/06/01 04:44:25;;;;;;;;;;;;;;;19.82;66.62;99450.00;4353667;32;33756;-84
2022/06/01 04:46:54;;;;;;;;;;;;;;;19.83;67.16;99448.22;4363353;32;33192;-86
2022/06/01 04:49:23;;;;;;;;;;;;;;;20.38;65.86;99452.16;4358531;32;34003;-85
2022/06/01 04:51:51;;;;;;;;;;;;;;;20.48;65.11;99448.06;4357628;32;34075;-84
2022/06/01 04:54:20;;;;;;;;;;;;;;;20.84;62.63;99452.13;4358161;32;32896;-85
2022/06/01 04:56:49;;;;;;;;;;;;;;;20.97;62.27;99449.59;4357601;32;34156;-85
2022/06/01 04:59:17;;;;;;;;;;;;;;;20.98;61.96;99444.25;4362865;32;34421;-85
2022/06/01 05:01:47;;;;;;;;;;;;;;;20.73;62.95;99455.44;4356794;32;33734;-84
2022/06/01 05:04:16;;;;;;;;;;;;;;;21.18;62.02;99448.31;4356967;32;32798;-85
2022/06/01 05:06:45;;;;;;;;;;;;;;;21.80;60.74;99449.84;4356477;32;33983;-86
2022/06/01 05:09:13;;;;;;;;;;;;;;;22.26;59.22;99436.34;4357135;32;34296;-86
2022/06/01 05:11:42;;;;;;;;;;;;;;;22.35;57.92;99441.88;4362392;32;34247;-86
2022/06/01 05:14:10;;;;;;;;;;;;;;;22.12;58.56;99450.41;4357459;32;34214;-86
2022/06/01 05:16:39;;;;;;;;;;;;;;;21.80;59.58;99449.84;4353246;32;35207;-85
2022/06/01 05:19:11;;;;;;;;;;;;;;;21.85;59.38;99453.88;4344568;32;32725;-85
2022/06/01 05:21:40;;;;;;;;;;;;;;;21.58;59.96;99467.03;4354442;32;34197;-85
2022/06/01 05:24:09;;;;;;;;;;;;;;;21.46;60.37;99465.16;4362523;32;34078;-85
2022/06/01 05:26:37;;;;;;;;;;;;;;;21.49;60.21;99459.66;4348886;32;33919;-85
2022/06/01 05:29:05;;;;;;;;;;;;;;;21.07;61.00;99463.97;4350153;32;34377;-86
2022/06/01 05:31:35;;;;;;;;;;;;;;;20.78;61.77;99473.56;4351982;32;34750;-86
2022/06/01 05:34:07;;;;;;;;;;;;;;;20.46;63.24;99477.16;4351204;32;33389;-85
2022/06/01 05:36:38;;;;;;;;;;;;;;;20.28;63.46;99474.69;4355410;32;34326;-86
2022/06/01 05:39:06;;;;;;;;;;;;;;;19.99;64.22;99474.53;4354348;32;34211;-85
2022/06/01 05:41:35;;;;;;;;;;;;;;;19.99;64.31;99490.34;4355882;32;34263;-87
2022/06/01 05:44:04;;;;;;;;;;;;;;;20.26;63.42;99490.59;4350247;32;33370;-86
2022/06/01 05:46:35;;;;;;;;;;;;;;;20.07;64.13;99501.28;4357190;32;33638;-87
2022/06/01 05:49:03;;;;;;;;;;;;;;;19.98;64.29;99500.03;4357307;32;34036;-85
2022/06/01 05:51:34;;;;;;;;;;;;;;;19.79;64.58;99499.34;4362113;32;34318;-85
2022/06/01 05:54:04;;;;;;;;;;;;;;;19.85;64.64;99501.62;4353439;32;33981;-86
2022/06/01 05:56:35;;;;;;;;;;;;;;;19.92;64.38;99502.16;4351604;32;34097;-86
2022/06/01 05:59:04;;;;;;;;;;;;;;;20.07;64.15;99508.34;4359168;32;33905;-85
2022/06/01 06:01:32;;;;;;;;;;;;;;;19.92;64.47;99502.16;4350313;32;33715;-86
2022/06/01 06:04:01;;;;;;;;;;;;;;;19.53;66.99;99505.97;4361392;32;32802;-86
2022/06/01 06:06:30;;;;;;;;;;;;;;;19.94;64.93;99508.19;4357507;32;34628;-86
2022/06/01 06:09:00;;;;;;;;;;;;;;;19.68;65.15;99509.59;4355200;32;34890;-86
2022/06/01 06:11:31;;;;;;;;;;;;;;;19.96;64.39;99501.06;4354811;32;34661;-86
2022/06/01 06:14:00;;;;;;;;;;;;;;;19.71;65.40;99509.41;4357438;32;33382;-87
2022/06/01 06:16:31;;;;;;;;;;;;;;;19.96;64.79;99499.25;4356984;32;34548;-85
2022/06/01 06:19:00;;;;;;;;;;;;;;;20.00;64.14;99510.47;4361229;32;33930;-85
2022/06/01 06:21:29;;;;;;;;;;;;;;;19.96;64.70;99509.78;4353075;32;34488;-85
2022/06/01 06:24:01;;;;;;;;;;;;;;;19.89;64.93;99505.78;4352276;32;33716;-86
2022/06/01 06:26:31;;;;;;;;;;;;;;;20.02;64.64;99512.06;4354839;32;34864;-86
2022/06/01 06:29:01;;;;;;;;;;;;;;;19.83;65.63;99519.28;4360756;32;33963;-85
2022/06/01 06:31:29;;;;;;;;;;;;;;;19.68;66.67;99513.06;4354779;32;34291;-86
2022/06/01 06:33:59;;;;;;;;;;;;;;;19.77;66.10;99517.84;4355833;32;33588;-85
2022/06/01 06:36:27;;;;;;;;;;;;;;;19.66;66.60;99520.16;4356681;32;34163;-87
2022/06/01 06:38:56;;;;;;;;;;;;;;;19.72;66.43;99521.66;4356267;32;34107;-85
2022/06/01 06:41:24;;;;;;;;;;;;;;;20.00;64.95;99526.25;4361997;32;34063;-86
2022/06/01 06:43:55;;;;;;;;;;;;;;;19.95;65.47;99533.56;4354006;32;33051;-86
2022/06/01 06:46:24;;;;;;;;;;;;;;;19.94;65.57;99542.41;4326409;32;1013009;-86
2022/06/01 06:48:52;;;;;;;;;;;;;;;19.85;65.41;99548.16;4359530;32;35024;-85
2022/06/01 06:51:21;;;;;;;;;;;;;;;19.61;66.23;99546.72;4356415;32;34465;-85
2022/06/01 06:53:50;;;;;;;;;;;;;;;19.67;66.21;99548.19;4362221;32;33748;-86
2022/06/01 06:56:19;;;;;;;;;;;;;;;19.52;66.92;99546.34;4356573;32;33873;-85
2022/06/01 06:58:47;;;;;;;;;;;;;;;19.75;66.50;99538.13;4354525;32;35073;-85
2022/06/01 07:01:18;;;;;;;;;;;;;;;20.10;65.20;99537.97;4355921;32;34265;-87
2022/06/01 07:03:46;;;;;;;;;;;;;;;20.18;64.91;99545.50;4355845;32;34034;-86
2022/06/01 07:06:22;;;;;;;;;;;;;;;20.29;64.98;99550.16;4360237;32;34275;-85
2022/06/01 07:08:52;;;;;;;;;;;;;;;20.44;63.94;99555.44;4356037;32;35004;-87
2022/06/01 07:11:21;;;;;;;;;;;;;;;20.65;63.17;99563.91;4355150;32;33120;-85
2022/06/01 07:13:50;;;;;;;;;;;;;;;20.51;63.19;99563.81;4364883;32;33260;-85
2022/06/01 07:16:21;;;;;;;;;;;;;;;20.59;63.56;99566.91;4356659;32;34235;-86
2022/06/01 07:18:50;;;;;;;;;;;;;;;20.42;63.95;99565.19;4355779;32;35028;-86
2022/06/01 07:21:19;;;;;;;;;;;;;;;20.51;62.70;99574.34;4361612;32;33810;-85
2022/06/01 07:23:48;;;;;;;;;;;;;;;20.24;63.71;99580.22;4354474;32;33087;-85
2022/06/01 07:26:18;;;;;;;;;;;;;;;20.38;63.95;99574.19;4351116;32;33522;-85
2022/06/01 07:28:47;;;;;;;;;;;;;;;19.98;65.92;99571.12;4353471;32;33804;-86
2022/06/01 07:31:17;;;;;;;;;;;;;;;20.76;60.97;99573.03;4355554;32;34005;-85
2022/06/01 07:33:47;;;;;;;;;;;;;;;20.21;63.34;99567.22;4359480;32;32305;-86
2022/06/01 07:36:16;;;;;;;;;;;;;;;20.48;62.77;99569.25;4353830;32;35898;-84
2022/06/01 07:44:19;;;;;;;;;;;;;;;21.45;59.12;99574.28;4354207;32;33340;-85
2022/06/01 07:46:48;;;;;;;;;;;;;;;21.67;59.54;99569.41;4353801;32;33598;-86
2022/06/01 07:49:18;;;;;;;;;;;;;;;21.62;59.06;99571.47;4358392;32;33806;-87
2022/06/01 07:52:08;;;;;;;;;;;;;;;22.25;57.52;99577.31;4355444;32;32536;-87
2022/06/01 07:54:37;;;;;;;;;;;;;;;22.48;56.78;99570.56;4353722;32;33019;-85
2022/06/01 07:57:06;;;;;;;;;;;;;;;22.48;56.86;99573.22;4354217;32;32399;-86
2022/06/01 07:59:37;;;;;;;;;;;;;;;22.70;55.47;99578.81;4355788;32;33986;-86
2022/06/01 08:02:09;;;;;;;;;;;;;;;22.69;55.69;99584.19;4353112;32;34734;-85
2022/06/01 08:04:40;;;;;;;;;;;;;;;22.23;57.39;99588.00;4360405;32;33903;-86
2022/06/01 08:07:10;;;;;;;;;;;;;;;22.29;57.20;99587.59;4357652;32;33257;-85
2022/06/01 08:09:38;;;;;;;;;;;;;;;22.13;58.34;99592.97;4352273;32;34160;-87
2022/06/01 08:14:54;;;;;;;;;;;;;;;22.35;56.26;99586.38;4353101;32;33378;-86
2022/06/01 08:17:22;;;;;;;;;;;;;;;22.01;58.15;99585.81;4353078;32;33551;-86
2022/06/01 08:19:52;;;;;;;;;;;;;;;22.36;56.29;99585.41;4358236;32;34852;-87
2022/06/01 08:22:20;;;;;;;;;;;;;;;22.36;56.83;99580.13;4353939;32;34464;-86
2022/06/01 08:24:49;;;;;;;;;;;;;;;22.30;56.10;99578.75;4354104;32;33851;-86
2022/06/01 08:27:18;;;;;;;;;;;;;;;22.30;58.21;99596.37;4355159;32;33709;-87
2022/06/01 08:29:46;;;;;;;;;;;;;;;22.29;56.71;99594.69;4354948;32;35032;-86
2022/06/01 08:32:15;;;;;;;;;;;;;;;22.48;56.45;99599.66;4359339;32;34405;-87
2022/06/01 08:34:43;;;;;;;;;;;;;;;22.44;56.19;99600.78;4354246;32;33149;-86
2022/06/01 08:37:13;;;;;;;;;;;;;;;22.50;55.62;99603.91;4353480;32;34276;-86
2022/06/01 08:39:42;;;;;;;;;;;;;;;22.90;54.30;99606.59;4355340;32;33783;-86
2022/06/01 08:42:12;;;;;;;;;;;;;;;22.80;55.69;99605.50;4355150;32;33940;-85
2022/06/01 08:44:41;;;;;;;;;;;;;;;22.88;55.02;99608.50;4355094;32;33062;-85
2022/06/01 08:47:21;;;;;;;;;;;;;;;23.05;54.06;99599.50;4360401;32;34528;-86
2022/06/01 08:49:50;;;;;;;;;;;;;;;23.04;54.95;99612.81;4354799;32;33742;-87
2022/06/01 08:52:20;;;;;;;;;;;;;;;23.00;54.90;99613.03;4354423;32;34833;-85
2022/06/01 08:54:49;;;;;;;;;;;;;;;22.77;54.74;99609.19;4355565;32;33100;-86
2022/06/01 08:57:21;;;;;;;;;;;;;;;22.64;54.62;99610.06;4354567;32;33784;-86
2022/06/01 08:59:52;;;;;;;;;;;;;;;22.20;54.81;99611.94;4358016;32;34722;-85
2022/06/01 09:02:31;;;;;;;;;;;;;;;22.51;54.46;99610.03;4356317;32;33234;-86
2022/06/01 09:05:05;;;;;;;;;;;;;;;22.51;54.14;99610.88;4355388;32;33199;-85
2022/06/01 09:07:37;;;;;;;;;;;;;;;22.93;51.95;99608.19;4355111;32;33964;-85
2022/06/01 09:10:12;;;;;;;;;;;;;;;23.11;51.79;99620.25;4355247;32;33197;-86
2022/06/01 09:12:41;;;;;;;;;;;;;;;22.88;51.66;99612.94;4347812;32;34074;-86
2022/06/01 09:15:12;;;;;;;;;;;;;;;23.08;50.45;99614.31;4361914;32;34105;-86
2022/06/01 09:17:43;;;;;;;;;;;;;;;23.12;52.13;99614.00;4346732;32;34164;-86
2022/06/01 09:23:03;;;;;;;;;;;;;;;23.21;51.44;99616.03;4355300;32;33885;-87
2022/06/01 09:25:34;;;;;;;;;;;;;;;23.16;51.72;99627.87;4340695;32;32440;-86
2022/06/01 09:28:04;;;;;;;;;;;;;;;22.93;51.77;99622.28;4353031;32;33991;-86
2022/06/01 09:30:34;;;;;;;;;;;;;;;22.94;50.98;99626.59;4359163;32;34223;-86
2022/06/01 09:33:12;;;;;;;;;;;;;;;23.07;49.67;99618.72;4358408;32;33861;-86
2022/06/01 09:35:42;;;;;;;;;;;;;;;23.66;48.95;99623.62;4345071;32;34155;-87
2022/06/01 09:38:22;;;;;;;;;;;;;;;23.94;48.92;99629.69;4345503;32;35017;-85
2022/06/01 09:41:02;;;;;;;;;;;;;;;23.90;47.94;99620.28;4342785;32;35120;-86
2022/06/01 09:43:31;;;;;;;;;;;;;;;23.75;47.91;99623.03;4346742;32;34782;-86
2022/06/01 09:46:00;;;;;;;;;;;;;;;23.51;46.96;99635.25;4347318;32;33723;-87
2022/06/01 09:48:30;;;;;;;;;;;;;;;23.76;46.63;99632.66;4345738;32;33985;-86
2022/06/01 09:51:01;;;;;;;;;;;;;;;23.83;47.02;99628.63;4340407;32;34197;-86
2022/06/01 09:53:33;;;;;;;;;;;;;;;23.79;47.02;99635.09;4354028;32;32651;-87
2022/06/01 09:56:03;;;;;;;;;;;;;;;23.59;48.24;99635.59;4352044;32;34056;-89
2022/06/01 10:07:04;;;;;;;;;;;;;;;24.02;46.83;99636.16;4316613;33;33223;-86
2022/06/01 10:09:36;;;;;;;;;;;;;;;24.27;46.43;99632.63;4309718;33;33894;-87
2022/06/01 10:12:16;;;;;;;;;;;;;;;24.57;44.56;99626.09;4307808;33;34549;-87
2022/06/01 10:14:50;;;;;;;;;;;;;;;24.80;44.35;99634.19;4312436;33;34404;-87
2022/06/01 10:17:19;;;;;;;;;;;;;;;24.66;44.89;99635.19;4304756;33;32921;-87
2022/06/01 10:19:50;;;;;;;;;;;;;;;25.01;43.15;99632.63;4298028;33;33484;-87
2022/06/01 10:22:21;;;;;;;;;;;;;;;24.81;44.35;99630.56;4305017;33;33412;-88
2022/06/01 10:24:53;;;;;;;;;;;;;;;24.96;43.23;99633.91;4299091;33;33834;-85
2022/06/01 10:27:22;;;;;;;;;;;;;;;25.28;42.53;99639.53;4304364;33;33449;-86
2022/06/01 10:29:52;;;;;;;;;;;;;;;25.25;42.63;99634.41;4298779;33;33870;-88
2022/06/01 10:32:24;;;;;;;;;;;;;;;25.30;41.58;99626.97;4304502;33;34074;-86
2022/06/01 10:34:54;;;;;;;;;;;;;;;25.49;41.83;99635.25;4305663;33;34453;-88
2022/06/01 10:37:25;;;;;;;;;;;;;;;25.33;40.95;99635.53;4308133;33;32944;-87
2022/06/01 10:39:58;;;;;;;;;;;;;;;25.50;40.66;99642.25;4310550;33;33064;-86
2022/06/01 10:43:16;;;;;;;;;;;;;;;25.45;40.23;99640.91;4352827;32;33943;-85
2022/06/01 10:45:20;;;;;;;;;;;;;;;25.41;39.92;99631.47;4356623;32;34756;-86
2022/06/01 10:47:54;;;;;;;;;;;;;;;25.83;39.75;99642.41;4355918;32;33106;-86
2022/06/01 10:50:26;;;;;;;;;;;;;;;25.77;40.16;99641.09;4356326;32;33921;-88
2022/06/01 10:52:57;;;;;;;;;;;;;;;26.04;39.40;99637.28;4361342;32;34273;-85
2022/06/01 10:55:29;;;;;;;;;;;;;;;26.09;39.27;99645.72;4354764;32;34827;-88
2022/06/01 10:57:58;;;;;;;;;;;;;;;26.21;38.88;99639.44;4354592;32;32815;-87
2022/06/01 11:00:34;;;;;;;;;;;;;;;26.19;38.05;99636.06;4354832;32;34555;-87
2022/06/01 11:03:12;;;;;;;;;;;;;;;26.21;39.09;99638.59;4356334;32;34003;-87
2022/06/01 11:05:44;;;;;;;;;;;;;;;26.44;38.33;99634.97;4357651;32;35132;-88
2022/06/01 11:08:16;;;;;;;;;;;;;;;26.76;36.63;99637.72;4359546;32;33630;-87
2022/06/01 11:10:48;;;;;;;;;;;;;;;26.65;36.72;99644.88;4353639;32;34882;-87
2022/06/01 11:13:24;;;;;;;;;;;;;;;26.74;36.21;99646.78;4347861;32;34705;-86
2022/06/01 11:15:56;;;;;;;;;;;;;;;26.74;35.82;99642.31;4350818;32;33963;-86
2022/06/01 11:18:29;;;;;;;;;;;;;;;26.92;36.11;99629.31;4346627;32;33057;-87
2022/06/01 11:21:08;;;;;;;;;;;;;;;27.06;36.81;99637.97;4352805;32;33538;-86
2022/06/01 11:23:47;;;;;;;;;;;;;;;26.78;36.73;99638.44;4348918;32;33881;-86
2022/06/01 11:26:22;;;;;;;;;;;;;;;26.62;36.65;99637.97;4350763;32;34169;-86
2022/06/01 11:29:00;;;;;;;;;;;;;;;27.33;35.56;99645.50;4345055;32;33302;-86
2022/06/01 11:31:29;;;;;;;;;;;;;;;27.18;34.79;99635.16;4349004;32;34694;-86
2022/06/01 11:34:00;;;;;;;;;;;;;;;27.53;33.84;99633.19;4355314;32;34144;-85
2022/06/01 11:36:31;;;;;;;;;;;;;;;27.69;34.44;99622.06;4354575;32;34421;-86
2022/06/01 11:39:02;;;;;;;;;;;;;;;27.71;34.34;99628.09;4361888;32;32969;-87
2022/06/01 11:41:34;;;;;;;;;;;;;;;27.83;34.74;99624.41;4350034;32;34866;-85
2022/06/01 11:44:03;;;;;;;;;;;;;;;27.61;34.59;99623.56;4346866;32;34262;-89
2022/06/01 11:46:39;;;;;;;;;;;;;;;27.62;34.52;99619.94;4350233;32;33977;-86
2022/06/01 11:49:11;;;;;;;;;;;;;;;27.70;33.91;99618.44;4347858;32;33361;-88
2022/06/01 11:51:47;;;;;;;;;;;;;;;27.82;33.34;99612.91;4359453;32;34121;-86
2022/06/01 11:54:19;;;;;;;;;;;;;;;28.10;33.09;99613.16;4359892;32;34176;-87
2022/06/01 11:56:54;;;;;;;;;;;;;;;27.58;34.25;99623.81;4353931;32;34748;-87
2022/06/01 11:59:24;;;;;;;;;;;;;;;27.47;35.05;99617.72;4341032;33;33591;-86
2022/06/01 12:02:01;;;;;;;;;;;;;;;27.78;34.71;99626.59;4348414;32;34847;-85
2022/06/01 12:04:32;;;;;;;;;;;;;;;28.35;32.05;99619.03;4352013;32;34306;-85
2022/06/01 12:07:02;;;;;;;;;;;;;;;28.04;32.59;99627.03;4358858;32;33641;-86
2022/06/01 12:09:45;;;;;;;;;;;;;;;28.16;32.94;99614.47;4361924;32;33320;-87
2022/06/01 12:12:26;;;;;;;;;;;;;;;28.21;32.76;99617.56;4356477;32;33558;-87
2022/06/01 12:14:57;;;;;;;;;;;;;;;28.03;33.54;99628.88;4356609;32;34154;-88
2022/06/01 12:17:29;;;;;;;;;;;;;;;28.54;31.73;99620.91;4355549;32;33947;-86
2022/06/01 12:20:17;;;;;;;;;;;;;;;28.40;31.80;99622.13;4346546;32;32640;-88
2022/06/01 12:28:46;;;;;;;;;;;;;;;28.93;32.52;99614.66;4348890;32;34052;-86
2022/06/01 12:31:15;;;;;;;;;;;;;;;28.78;31.87;99612.53;4350444;32;32660;-90
2022/06/01 12:34:03;;;;;;;;;;;;;;;29.56;30.25;99616.06;4345460;32;34100;-86
2022/06/01 12:36:35;;;;;;;;;;;;;;;29.56;30.08;99613.37;4347714;32;34804;-87
2022/06/01 12:39:04;;;;;;;;;;;;;;;29.84;28.47;99614.31;4346562;32;35034;-87
2022/06/01 12:41:35;;;;;;;;;;;;;;;29.98;27.48;99613.00;4344867;32;33177;-85
2022/06/01 12:44:06;;;;;;;;;;;;;;;30.03;28.25;99609.88;4346617;32;33664;-87
2022/06/01 12:46:38;;;;;;;;;;;;;;;30.44;28.09;99605.06;4351343;32;34977;-89
2022/06/01 12:49:22;;;;;;;;;;;;;;;30.80;27.84;99603.25;4347779;32;33361;-87
2022/06/01 12:51:52;;;;;;;;;;;;;;;30.70;27.10;99605.19;4344976;32;33989;-87
2022/06/01 12:54:28;;;;;;;;;;;;;;;30.22;28.18;99596.41;4339477;32;33094;-89
2022/06/01 12:56:57;;;;;;;;;;;;;;;29.87;27.99;99597.97;4342966;32;33815;-86
2022/06/01 12:59:30;;;;;;;;;;;;;;;29.46;29.01;99593.84;4347717;32;34910;-86
2022/06/01 13:02:05;;;;;;;;;;;;;;;29.56;28.06;99600.84;4352759;32;32702;-89
2022/06/01 13:04:41;;;;;;;;;;;;;;;29.59;28.56;99591.69;4345933;32;33323;-89
2022/06/01 13:07:10;;;;;;;;;;;;;;;29.92;26.98;99595.72;4345791;32;34653;-85
2022/06/01 13:09:39;;;;;;;;;;;;;;;30.07;28.11;99597.91;4353669;32;34433;-87
2022/06/01 13:12:13;;;;;;;;;;;;;;;30.28;27.28;99595.03;4349900;32;32521;-88
2022/06/01 13:14:44;;;;;;;;;;;;;;;30.64;26.89;99590.56;4343210;32;34079;-86
2022/06/01 13:17:14;;;;;;;;;;;;;;;30.90;25.37;99590.66;4348586;32;32942;-87
2022/06/01 13:19:44;;;;;;;;;;;;;;;31.06;25.84;99589.13;4338301;32;34567;-89
2022/06/01 13:22:13;;;;;;;;;;;;;;;31.60;25.05;99588.03;4340121;32;33463;-89
2022/06/01 13:24:43;;;;;;;;;;;;;;;31.61;25.03;99588.91;4340248;32;33494;-88
2022/06/01 13:27:12;;;;;;;;;;;;;;;31.67;26.42;99589.09;4339390;32;35144;-86
2022/06/01 13:29:44;;;;;;;;;;;;;;;31.20;23.29;99586.75;4345786;32;34885;-89
2022/06/01 13:32:15;;;;;;;;;;;;;;;31.02;23.48;99585.91;4340352;32;33556;-87
2022/06/01 13:34:44;;;;;;;;;;;;;;;30.75;23.70;99582.28;4352370;32;33392;-90
2022/06/01 13:37:16;;;;;;;;;;;;;;;31.32;24.43;99589.19;4341863;32;32760;-88
2022/06/01 13:39:54;;;;;;;;;;;;;;;31.95;22.99;99578.22;4340288;32;34300;-86